createdAt,value
2019-05-05T00:01:50.649Z,3.73
2019-05-05T00:04:26.839Z,3.90
2019-05-05T00:07:20.768Z,3.80
2019-05-05T00:10:15.125Z,4.67
2019-05-05T00:13:06.183Z,4.23
2019-05-05T00:15:55.152Z,3.97
2019-05-05T00:18:26.857Z,4.97
2019-05-05T00:21:05.512Z,4.50
2019-05-05T00:23:36.057Z,4.30
2019-05-05T00:26:07.285Z,4.90
2019-05-05T00:28:36.764Z,5.20
2019-05-05T00:31:15.149Z,5.40
2019-05-05T00:33:44.909Z,5.80
2019-05-05T00:36:14.487Z,5.63
2019-05-05T00:38:44.520Z,5.73
2019-05-05T00:41:22.495Z,6.33
2019-05-05T00:43:51.533Z,6.07
2019-05-05T00:46:25.976Z,6.43
2019-05-05T00:48:55.357Z,5.73
2019-05-05T00:51:35.435Z,5.83
2019-05-05T00:54:07.249Z,6.43
2019-05-05T00:56:36.289Z,5.83
2019-05-05T00:59:11.003Z,6.50
2019-05-05T01:02:18.867Z,6.60
2019-05-05T01:04:58.452Z,7.07
2019-05-05T01:07:27.534Z,6.37
2019-05-05T01:09:57.136Z,7.00
2019-05-05T01:12:35.350Z,6.90
2019-05-05T01:15:04.905Z,7.60
2019-05-05T01:17:35.655Z,7.30
2019-05-05T01:20:06.980Z,7.53
2019-05-05T01:22:45.208Z,6.50
2019-05-05T01:25:14.947Z,6.73
2019-05-05T01:27:45.267Z,6.73
2019-05-05T01:30:17.626Z,7.07
2019-05-05T01:35:36.936Z,6.90
2019-05-05T01:38:11.363Z,7.30
2019-05-05T01:40:59.987Z,6.60
2019-05-05T01:43:29.022Z,6.63
2019-05-05T01:45:58.299Z,7.10
2019-05-05T01:48:27.517Z,6.20
2019-05-05T01:51:10.685Z,7.03
2019-05-05T01:53:39.857Z,6.13
2019-05-05T01:56:09.361Z,5.60
2019-05-05T01:58:38.435Z,6.00
2019-05-05T02:01:16.424Z,5.77
2019-05-05T02:03:46.239Z,6.03
2019-05-05T02:06:15.363Z,5.40
2019-05-05T02:08:45.456Z,5.40
2019-05-05T02:11:24.695Z,5.20
2019-05-05T02:13:54.619Z,5.43
2019-05-05T02:16:25.317Z,5.53
2019-05-05T02:18:54.682Z,5.37
2019-05-05T02:24:07.442Z,5.60
2019-05-05T02:26:36.587Z,6.10
2019-05-05T02:29:17.356Z,5.00
2019-05-05T02:32:15.817Z,4.73
2019-05-05T02:34:50.092Z,5.03
2019-05-05T02:37:19.606Z,5.53
2019-05-05T02:39:57.903Z,5.17
2019-05-05T02:42:29.073Z,5.43
2019-05-05T02:45:00.850Z,5.33
2019-05-05T02:47:54.891Z,5.50
2019-05-05T02:50:26.902Z,5.27
2019-05-05T02:53:16.301Z,5.53
2019-05-05T02:55:45.690Z,4.73
2019-05-05T02:58:15.209Z,5.17
2019-05-05T03:01:01.663Z,5.40
2019-05-05T03:03:40.153Z,5.10
2019-05-05T03:06:09.146Z,5.50
2019-05-05T03:08:41.473Z,5.30
2019-05-05T03:11:14.463Z,5.23
2019-05-05T03:16:23.503Z,5.40
2019-05-05T03:18:52.098Z,5.90
2019-05-05T03:21:36.836Z,5.97
2019-05-05T03:24:06.746Z,5.77
2019-05-05T03:26:36.197Z,5.70
2019-05-05T03:29:08.281Z,5.73
2019-05-05T03:34:24.017Z,6.17
2019-05-05T03:36:53.933Z,5.93
2019-05-05T03:39:25.335Z,6.40
2019-05-05T03:42:25.771Z,6.60
2019-05-05T03:45:23.524Z,5.83
2019-05-05T03:47:54.116Z,6.20
2019-05-05T03:50:23.852Z,6.10
2019-05-05T03:53:02.022Z,6.30
2019-05-05T03:55:31.427Z,5.70
2019-05-05T03:58:00.742Z,5.90
2019-05-05T04:01:09.382Z,6.10
2019-05-05T04:03:49.890Z,6.27
2019-05-05T04:06:36.678Z,5.70
2019-05-05T04:09:07.206Z,6.67
2019-05-05T04:11:36.642Z,6.50
2019-05-05T04:14:18.262Z,6.57
2019-05-05T04:16:55.902Z,6.73
2019-05-05T04:19:25.663Z,6.20
2019-05-05T04:22:07.098Z,6.23
2019-05-05T04:24:36.202Z,6.57
2019-05-05T04:27:05.365Z,6.33
2019-05-05T04:29:34.720Z,6.73
2019-05-05T04:45:15.791Z,6.10
2019-05-05T04:47:47.771Z,5.50
2019-05-05T04:50:24.351Z,5.80
2019-05-05T04:55:44.308Z,5.00
2019-05-05T04:58:15.279Z,6.10
2019-05-05T05:00:44.542Z,5.50
2019-05-05T05:03:37.191Z,5.57
2019-05-05T05:06:14.535Z,5.40
2019-05-05T05:08:44.307Z,5.47
2019-05-05T05:11:15.336Z,5.70
2019-05-05T05:16:30.726Z,5.27
2019-05-05T05:18:59.820Z,5.33
2019-05-05T05:21:28.930Z,5.20
2019-05-05T05:24:07.095Z,4.93
2019-05-05T05:26:36.158Z,5.40
2019-05-05T05:29:05.446Z,5.67
2019-05-05T05:31:37.659Z,5.37
2019-05-05T05:34:16.001Z,5.20
2019-05-05T05:36:45.227Z,5.53
2019-05-05T05:39:36.474Z,5.47
2019-05-05T05:42:06.610Z,5.73
2019-05-05T05:47:51.149Z,4.90
2019-05-05T05:50:44.301Z,5.10
2019-05-05T05:53:24.014Z,5.33
2019-05-05T05:55:59.211Z,5.77
2019-05-05T06:02:30.714Z,4.43
2019-05-05T06:07:27.062Z,4.90
2019-05-05T06:13:24.208Z,4.30
2019-05-05T06:16:04.253Z,3.97
2019-05-05T06:18:49.125Z,3.93
2019-05-05T06:21:20.314Z,3.93
2019-05-05T06:27:10.435Z,4.50
2019-05-05T06:29:43.752Z,4.57
2019-05-05T06:38:08.970Z,4.63
2019-05-05T06:41:01.854Z,4.80
2019-05-05T06:46:58.056Z,4.60
2019-05-05T06:49:31.698Z,4.20
2019-05-05T06:57:23.608Z,3.90
2019-05-05T06:59:55.267Z,4.43
2019-05-05T07:02:25.532Z,5.23
2019-05-05T07:07:38.677Z,4.87
2019-05-05T07:10:07.853Z,3.97
2019-05-05T07:12:36.926Z,3.90
2019-05-05T07:15:14.875Z,4.20
2019-05-05T07:17:44.330Z,3.90
2019-05-05T07:20:13.782Z,4.53
2019-05-05T07:22:58.445Z,4.07
2019-05-05T07:25:24.228Z,3.90
2019-05-05T07:28:05.109Z,4.50
2019-05-05T07:37:23.782Z,4.70
2019-05-05T07:39:38.946Z,4.83
2019-05-05T07:42:06.017Z,5.87
2019-05-05T07:44:44.171Z,4.03
2019-05-05T07:47:14.587Z,4.13
2019-05-05T07:49:44.185Z,4.83
2019-05-05T07:52:25.454Z,4.20
2019-05-05T07:55:00.640Z,4.43
2019-05-05T07:57:26.988Z,4.67
2019-05-05T07:59:55.989Z,4.80
2019-05-05T08:02:37.937Z,4.80
2019-05-05T08:05:07.299Z,3.90
2019-05-05T08:07:36.302Z,4.53
2019-05-05T08:10:05.806Z,4.73
2019-05-05T08:12:43.845Z,4.70
2019-05-05T08:15:26.929Z,4.60
2019-05-05T08:18:13.906Z,4.53
2019-05-05T08:20:48.674Z,4.60
2019-05-05T08:23:36.319Z,4.83
2019-05-05T08:26:15.101Z,4.40
2019-05-05T08:28:49.450Z,3.90
2019-05-05T08:31:27.038Z,4.37
2019-05-05T08:34:05.323Z,4.47
2019-05-05T08:36:39.330Z,3.60
2019-05-05T08:39:07.644Z,3.70
2019-05-05T08:47:50.921Z,3.33
2019-05-05T08:53:00.699Z,3.63
2019-05-05T08:55:29.794Z,3.57
2019-05-05T08:58:04.819Z,3.40
2019-05-05T09:00:34.040Z,3.30
2019-05-05T09:03:14.845Z,3.20
2019-05-05T09:10:57.053Z,3.40
2019-05-05T09:51:43.842Z,2.40
2019-05-05T09:57:30.431Z,2.40
2019-05-05T10:00:15.886Z,2.33
2019-05-05T10:03:00.032Z,1.90
2019-05-05T10:10:44.167Z,2.17
2019-05-05T10:12:34.885Z,2.23
2019-05-05T10:27:17.698Z,2.50
2019-05-05T10:45:34.908Z,1.97
2019-05-05T10:48:06.401Z,2.43
2019-05-05T10:53:39.358Z,2.10
2019-05-05T10:56:13.854Z,2.00
2019-05-05T10:58:45.058Z,2.43
2019-05-05T11:04:44.390Z,3.13
2019-05-05T11:07:25.337Z,2.90
2019-05-05T11:20:26.164Z,2.57
2019-05-05T11:23:00.904Z,2.70
2019-05-05T11:32:36.264Z,2.73
2019-05-05T11:35:21.142Z,2.00
2019-05-05T11:37:51.867Z,2.20
2019-05-05T11:40:39.109Z,1.90
2019-05-05T11:43:53.346Z,1.70
2019-05-05T11:52:00.775Z,1.80
2019-05-05T11:54:28.274Z,1.67
2019-05-05T11:57:08.155Z,1.70
2019-05-05T12:02:54.377Z,1.90
2019-05-05T12:05:49.154Z,1.63
2019-05-05T12:08:50.259Z,1.60
2019-05-05T12:11:20.664Z,1.63
2019-05-05T12:17:20.450Z,1.63
2019-05-05T12:20:08.984Z,1.40
2019-05-05T13:06:54.307Z,1.80
2019-05-05T13:09:24.367Z,1.77
2019-05-05T13:11:54.285Z,1.77
2019-05-05T13:14:23.534Z,1.60
2019-05-05T13:17:03.662Z,1.77
2019-05-05T13:20:00.478Z,1.87
2019-05-05T13:23:28.426Z,1.53
2019-05-05T13:26:51.080Z,2.10
2019-05-05T13:29:24.460Z,1.63
2019-05-05T13:31:54.401Z,2.30
2019-05-05T13:34:29.183Z,1.70
2019-05-05T13:37:14.049Z,1.53
2019-05-05T13:42:16.264Z,1.60
2019-05-05T13:45:06.165Z,1.77
2019-05-05T13:47:35.366Z,1.60
2019-05-05T13:50:18.165Z,1.70
2019-05-05T13:52:58.886Z,1.80
2019-05-05T13:55:41.731Z,1.43
2019-05-05T13:58:14.358Z,1.50
2019-05-05T14:00:44.181Z,1.47
2019-05-05T14:03:14.449Z,1.60
2019-05-05T14:16:54.001Z,1.73
2019-05-05T14:19:24.852Z,1.50
2019-05-05T14:21:54.071Z,1.70
2019-05-05T14:24:40.759Z,2.10
2019-05-05T14:27:23.672Z,3.20
2019-05-05T14:30:04.565Z,1.70
2019-05-05T14:32:35.969Z,1.50
2019-05-05T14:38:04.098Z,1.77
2019-05-05T14:40:34.044Z,1.60
2019-05-05T14:43:04.529Z,2.10
2019-05-05T14:45:44.401Z,3.47
2019-05-05T14:48:14.015Z,4.30
2019-05-05T14:50:43.867Z,2.07
2019-05-05T14:53:14.508Z,2.10
2019-05-05T14:59:16.392Z,1.70
2019-05-05T15:01:45.515Z,1.37
2019-05-05T15:04:16.693Z,1.30
2019-05-05T15:07:09.923Z,1.70
2019-05-05T15:13:14.850Z,1.57
2019-05-05T15:15:47.328Z,1.63
2019-05-05T15:18:30.720Z,1.50
2019-05-05T15:21:00.558Z,1.40
2019-05-05T15:27:20.121Z,0.97
2019-05-05T15:32:27.357Z,0.93
2019-05-05T15:35:00.127Z,1.27
2019-05-05T15:48:57.424Z,1.10
2019-05-05T15:51:29.258Z,1.10
2019-05-05T15:54:30.837Z,1.40
2019-05-05T15:57:08.626Z,1.30
2019-05-05T16:02:49.358Z,1.30
2019-05-05T16:05:24.138Z,1.30
2019-05-05T16:10:27.784Z,1.30
2019-05-05T16:12:57.161Z,1.33
2019-05-05T16:15:51.472Z,1.13
2019-05-05T16:18:48.652Z,1.50
2019-05-05T16:21:51.962Z,1.37
2019-05-05T16:24:25.789Z,1.63
2019-05-05T16:27:18.393Z,1.20
2019-05-05T16:29:34.742Z,1.73
2019-05-05T16:32:18.432Z,1.50
2019-05-05T16:35:28.160Z,1.50
2019-05-05T16:38:03.842Z,1.83
2019-05-05T16:40:33.877Z,1.40
2019-05-05T16:43:04.696Z,2.20
2019-05-05T16:45:37.061Z,1.20
2019-05-05T16:48:25.801Z,1.27
2019-05-05T16:50:54.977Z,1.00
2019-05-05T17:00:01.546Z,1.30
2019-05-05T17:02:30.480Z,1.00
2019-05-05T17:04:59.670Z,0.80
2019-05-05T17:07:37.899Z,1.10
2019-05-05T17:23:23.724Z,0.93
2019-05-05T17:28:37.300Z,1.00
2019-05-05T17:32:06.005Z,1.83
2019-05-05T17:34:35.627Z,1.43
2019-05-05T17:48:05.491Z,1.40
2019-05-05T17:51:01.192Z,1.27
2019-05-05T18:00:06.397Z,1.30
2019-05-05T18:02:35.975Z,1.63
2019-05-05T18:05:05.626Z,1.50
2019-05-05T18:07:51.240Z,1.60
2019-05-05T18:10:25.113Z,1.57
2019-05-05T18:13:28.185Z,1.50
2019-05-05T18:16:00.273Z,1.30
2019-05-05T18:18:38.905Z,1.30
2019-05-05T18:21:07.884Z,1.20
2019-05-05T18:23:36.869Z,1.47
2019-05-05T18:26:07.081Z,1.27
2019-05-05T18:28:47.978Z,1.10
2019-05-05T18:31:15.839Z,1.10
2019-05-05T18:33:44.920Z,1.30
2019-05-05T18:36:17.009Z,1.40
2019-05-05T18:38:56.509Z,1.77
2019-05-05T18:41:35.042Z,1.27
2019-05-05T18:44:13.356Z,1.50
2019-05-05T18:46:43.477Z,1.60
2019-05-05T18:49:23.289Z,1.30
2019-05-05T18:51:53.332Z,1.27
2019-05-05T18:54:22.634Z,1.23
2019-05-05T18:56:53.513Z,1.53
2019-05-05T18:59:33.522Z,1.30
2019-05-05T19:02:28.071Z,1.37
2019-05-05T19:05:23.558Z,1.20
2019-05-05T19:07:58.612Z,1.50
2019-05-05T19:10:36.527Z,1.30
2019-05-05T19:13:05.824Z,1.50
2019-05-05T19:15:37.476Z,1.50
2019-05-05T19:18:07.363Z,1.30
2019-05-05T19:20:44.467Z,1.33
2019-05-05T19:23:14.769Z,1.40
2019-05-05T19:25:44.909Z,1.50
2019-05-05T19:28:14.311Z,1.47
2019-05-05T19:33:27.852Z,1.33
2019-05-05T19:35:57.110Z,1.37
2019-05-05T19:38:27.614Z,1.57
2019-05-05T19:41:06.146Z,1.40
2019-05-05T19:43:54.387Z,1.53
2019-05-05T19:46:27.365Z,1.40
2019-05-05T19:51:55.237Z,1.30
2019-05-05T19:54:24.585Z,1.20
2019-05-05T19:56:54.261Z,1.40
2019-05-05T20:02:08.046Z,1.07
2019-05-05T20:04:37.424Z,1.40
2019-05-05T20:07:09.693Z,1.63
2019-05-05T20:09:47.673Z,1.37
2019-05-05T20:12:16.698Z,1.60
2019-05-05T20:14:45.530Z,1.57
2019-05-05T20:21:39.690Z,1.80
2019-05-05T20:38:58.672Z,1.80
2019-05-05T20:44:02.553Z,2.03
2019-05-05T20:46:31.814Z,1.60
2019-05-05T20:49:00.668Z,1.80
2019-05-05T20:51:29.542Z,2.20
2019-05-05T20:54:00.075Z,1.80
2019-05-05T20:56:28.955Z,2.47
2019-05-05T20:58:57.917Z,2.00
2019-05-05T21:01:26.965Z,2.60
2019-05-05T21:04:06.403Z,2.30
2019-05-05T21:06:35.439Z,2.10
2019-05-05T21:09:06.063Z,2.13
2019-05-05T21:11:37.352Z,2.40
2019-05-05T21:14:15.424Z,2.20
2019-05-05T21:16:44.302Z,2.93
2019-05-05T21:19:14.032Z,2.63
2019-05-05T21:21:46.157Z,2.70
2019-05-05T21:24:15.171Z,2.47
2019-05-05T21:27:01.394Z,2.40
2019-05-05T21:29:39.494Z,2.60
2019-05-05T21:32:01.131Z,2.50
2019-05-05T21:34:39.155Z,1.93
2019-05-05T21:37:08.180Z,2.60
2019-05-05T21:39:37.358Z,2.93
2019-05-05T21:48:34.511Z,2.83
2019-05-05T21:51:38.332Z,3.93
2019-05-05T21:54:44.484Z,2.50
2019-05-05T21:57:30.841Z,5.30
2019-05-05T22:00:00.052Z,3.03
2019-05-05T22:02:29.166Z,2.90
2019-05-05T22:05:07.743Z,3.00
2019-05-05T22:07:36.714Z,3.40
2019-05-05T22:10:05.894Z,3.17
2019-05-05T22:12:36.295Z,3.10
2019-05-05T22:15:14.453Z,3.30
2019-05-05T22:17:45.295Z,2.90
2019-05-05T22:20:21.030Z,3.13
2019-05-05T22:22:54.157Z,2.90
2019-05-05T22:25:34.080Z,3.07
2019-05-05T22:28:04.273Z,3.10
2019-05-05T22:30:34.497Z,3.03
2019-05-05T22:33:05.760Z,2.73
2019-05-05T22:35:44.229Z,2.50
2019-05-05T22:38:13.781Z,2.73
2019-05-05T22:40:45.746Z,2.90
2019-05-05T22:43:15.025Z,2.27
2019-05-05T22:46:05.359Z,2.57
2019-05-05T22:48:34.666Z,2.83
2019-05-05T22:51:03.871Z,3.00
2019-05-05T22:53:34.664Z,2.30
2019-05-05T22:56:14.669Z,2.80
2019-05-05T22:58:44.046Z,2.30
2019-05-05T23:01:15.416Z,2.30
2019-05-05T23:03:57.893Z,2.70
2019-05-05T23:06:36.305Z,2.60
2019-05-05T23:09:07.409Z,2.20
2019-05-05T23:11:36.366Z,2.40
2019-05-05T23:14:24.761Z,2.43
2019-05-05T23:17:11.803Z,2.13
2019-05-05T23:19:45.614Z,2.43
2019-05-05T23:22:34.830Z,2.40
2019-05-05T23:25:27.235Z,2.30
2019-05-05T23:27:58.371Z,2.07
2019-05-05T23:30:39.489Z,2.47
2019-05-05T23:32:59.321Z,3.00
2019-05-05T23:35:37.051Z,2.57
2019-05-05T23:38:06.177Z,2.00
2019-05-05T23:40:37.489Z,2.40
2019-05-05T23:43:09.100Z,2.50
2019-05-05T23:45:38.121Z,2.17
2019-05-05T23:48:07.088Z,2.30
2019-05-05T23:57:01.777Z,2.80
2019-05-05T23:59:30.828Z,2.57
